sensor_id;sensor_type;location;lat;lon;timestamp;P1;durP1;ratioP1;P2;durP2;ratioP2
75634;SDS011;64227;48.724;9.104;2023-07-31T00:01:21;2.13;;;1.30;;
75634;SDS011;64227;48.724;9.104;2023-07-31T00:03:47;1.33;;;0.82;;
75634;SDS011;64227;48.724;9.104;2023-07-31T00:06:12;2.40;;;0.80;;
75634;SDS011;64227;48.724;9.104;2023-07-31T00:08:37;1.13;;;0.70;;
75634;SDS011;64227;48.724;9.104;2023-07-31T00:11:03;1.95;;;0.95;;
75634;SDS011;64227;48.724;9.104;2023-07-31T00:13:28;2.63;;;0.93;;
75634;SDS011;64227;48.724;9.104;2023-07-31T00:15:53;2.92;;;1.08;;
75634;SDS011;64227;48.724;9.104;2023-07-31T00:18:19;2.05;;;1.02;;
75634;SDS011;64227;48.724;9.104;2023-07-31T00:20:44;3.80;;;1.27;;
75634;SDS011;64227;48.724;9.104;2023-07-31T00:23:09;2.60;;;1.10;;
75634;SDS011;64227;48.724;9.104;2023-07-31T00:25:34;1.25;;;1.00;;
75634;SDS011;64227;48.724;9.104;2023-07-31T00:28:00;2.30;;;0.90;;
75634;SDS011;64227;48.724;9.104;2023-07-31T00:30:25;2.72;;;1.17;;
75634;SDS011;64227;48.724;9.104;2023-07-31T00:32:51;2.85;;;1.15;;
75634;SDS011;64227;48.724;9.104;2023-07-31T00:35:17;2.42;;;1.08;;
75634;SDS011;64227;48.724;9.104;2023-07-31T00:37:42;2.65;;;1.20;;
75634;SDS011;64227;48.724;9.104;2023-07-31T00:40:07;3.83;;;1.20;;
75634;SDS011;64227;48.724;9.104;2023-07-31T00:42:33;2.10;;;0.90;;
75634;SDS011;64227;48.724;9.104;2023-07-31T00:44:59;1.40;;;1.05;;
75634;SDS011;64227;48.724;9.104;2023-07-31T00:47:24;2.55;;;1.17;;
75634;SDS011;64227;48.724;9.104;2023-07-31T00:49:49;4.20;;;1.42;;
75634;SDS011;64227;48.724;9.104;2023-07-31T00:52:15;1.88;;;1.10;;
75634;SDS011;64227;48.724;9.104;2023-07-31T00:54:41;2.95;;;1.10;;
75634;SDS011;64227;48.724;9.104;2023-07-31T00:57:06;4.72;;;1.20;;
75634;SDS011;64227;48.724;9.104;2023-07-31T00:59:33;2.13;;;1.02;;
75634;SDS011;64227;48.724;9.104;2023-07-31T01:01:58;3.50;;;1.10;;
75634;SDS011;64227;48.724;9.104;2023-07-31T01:04:24;1.70;;;1.02;;
75634;SDS011;64227;48.724;9.104;2023-07-31T01:07:06;3.05;;;0.95;;
75634;SDS011;64227;48.724;9.104;2023-07-31T01:09:45;2.13;;;1.00;;
75634;SDS011;64227;48.724;9.104;2023-07-31T01:12:15;2.15;;;1.10;;
75634;SDS011;64227;48.724;9.104;2023-07-31T01:15:04;2.95;;;1.20;;
75634;SDS011;64227;48.724;9.104;2023-07-31T01:17:35;2.67;;;1.27;;
75634;SDS011;64227;48.724;9.104;2023-07-31T01:20:02;1.70;;;0.80;;
75634;SDS011;64227;48.724;9.104;2023-07-31T01:22:31;1.30;;;0.90;;
75634;SDS011;64227;48.724;9.104;2023-07-31T01:27:53;1.10;;;1.00;;
75634;SDS011;64227;48.724;9.104;2023-07-31T01:30:25;1.25;;;0.77;;
75634;SDS011;64227;48.724;9.104;2023-07-31T01:32:53;1.52;;;0.95;;
75634;SDS011;64227;48.724;9.104;2023-07-31T01:35:19;2.78;;;1.10;;
75634;SDS011;64227;48.724;9.104;2023-07-31T01:37:45;1.65;;;1.02;;
75634;SDS011;64227;48.724;9.104;2023-07-31T01:40:10;2.45;;;1.10;;
75634;SDS011;64227;48.724;9.104;2023-07-31T01:42:36;1.42;;;1.00;;
75634;SDS011;64227;48.724;9.104;2023-07-31T01:45:01;1.80;;;0.95;;
75634;SDS011;64227;48.724;9.104;2023-07-31T01:47:26;1.98;;;1.02;;
75634;SDS011;64227;48.724;9.104;2023-07-31T01:49:51;2.50;;;1.00;;
75634;SDS011;64227;48.724;9.104;2023-07-31T01:52:17;2.88;;;1.20;;
75634;SDS011;64227;48.724;9.104;2023-07-31T01:54:42;1.73;;;1.00;;
75634;SDS011;64227;48.724;9.104;2023-07-31T01:57:07;2.28;;;1.20;;
75634;SDS011;64227;48.724;9.104;2023-07-31T01:59:33;2.20;;;1.25;;
75634;SDS011;64227;48.724;9.104;2023-07-31T02:01:58;1.88;;;0.90;;
75634;SDS011;64227;48.724;9.104;2023-07-31T02:04:23;3.78;;;1.17;;
75634;SDS011;64227;48.724;9.104;2023-07-31T02:06:48;1.05;;;0.90;;
75634;SDS011;64227;48.724;9.104;2023-07-31T02:09:14;2.88;;;0.80;;
75634;SDS011;64227;48.724;9.104;2023-07-31T02:11:39;2.15;;;1.00;;
75634;SDS011;64227;48.724;9.104;2023-07-31T02:14:04;1.02;;;0.93;;
75634;SDS011;64227;48.724;9.104;2023-07-31T02:16:30;2.58;;;1.10;;
75634;SDS011;64227;48.724;9.104;2023-07-31T02:18:55;1.25;;;0.90;;
75634;SDS011;64227;48.724;9.104;2023-07-31T02:21:20;1.95;;;0.82;;
75634;SDS011;64227;48.724;9.104;2023-07-31T02:23:46;1.83;;;1.00;;
75634;SDS011;64227;48.724;9.104;2023-07-31T02:26:11;1.05;;;0.93;;
75634;SDS011;64227;48.724;9.104;2023-07-31T02:28:36;1.45;;;0.90;;
75634;SDS011;64227;48.724;9.104;2023-07-31T02:31:02;1.27;;;0.88;;
75634;SDS011;64227;48.724;9.104;2023-07-31T02:33:27;0.90;;;0.80;;
75634;SDS011;64227;48.724;9.104;2023-07-31T02:35:52;2.40;;;1.13;;
75634;SDS011;64227;48.724;9.104;2023-07-31T02:38:18;1.27;;;0.82;;
75634;SDS011;64227;48.724;9.104;2023-07-31T02:40:43;5.43;;;0.95;;
75634;SDS011;64227;48.724;9.104;2023-07-31T02:43:09;2.00;;;1.00;;
75634;SDS011;64227;48.724;9.104;2023-07-31T02:45:34;2.10;;;0.93;;
75634;SDS011;64227;48.724;9.104;2023-07-31T02:48:00;1.60;;;1.10;;
75634;SDS011;64227;48.724;9.104;2023-07-31T02:50:25;2.00;;;1.00;;
75634;SDS011;64227;48.724;9.104;2023-07-31T02:52:52;1.40;;;0.85;;
75634;SDS011;64227;48.724;9.104;2023-07-31T02:55:17;1.38;;;0.98;;
75634;SDS011;64227;48.724;9.104;2023-07-31T02:57:43;2.25;;;1.10;;
75634;SDS011;64227;48.724;9.104;2023-07-31T03:00:08;2.60;;;2.40;;
75634;SDS011;64227;48.724;9.104;2023-07-31T03:02:34;1.23;;;0.88;;
75634;SDS011;64227;48.724;9.104;2023-07-31T03:04:59;1.48;;;0.82;;
75634;SDS011;64227;48.724;9.104;2023-07-31T03:07:25;3.20;;;1.02;;
75634;SDS011;64227;48.724;9.104;2023-07-31T03:09:50;1.73;;;0.93;;
75634;SDS011;64227;48.724;9.104;2023-07-31T03:12:15;2.17;;;1.13;;
75634;SDS011;64227;48.724;9.104;2023-07-31T03:14:41;1.77;;;0.98;;
75634;SDS011;64227;48.724;9.104;2023-07-31T03:17:06;1.48;;;0.88;;
75634;SDS011;64227;48.724;9.104;2023-07-31T03:19:31;2.70;;;1.13;;
75634;SDS011;64227;48.724;9.104;2023-07-31T03:21:57;1.60;;;1.10;;
75634;SDS011;64227;48.724;9.104;2023-07-31T03:24:23;1.83;;;0.90;;
75634;SDS011;64227;48.724;9.104;2023-07-31T03:26:48;2.25;;;1.17;;
75634;SDS011;64227;48.724;9.104;2023-07-31T03:29:13;1.95;;;1.23;;
75634;SDS011;64227;48.724;9.104;2023-07-31T03:31:39;2.70;;;1.10;;
75634;SDS011;64227;48.724;9.104;2023-07-31T03:34:04;1.10;;;1.00;;
75634;SDS011;64227;48.724;9.104;2023-07-31T03:36:29;2.58;;;1.35;;
75634;SDS011;64227;48.724;9.104;2023-07-31T03:38:55;2.58;;;0.95;;
75634;SDS011;64227;48.724;9.104;2023-07-31T03:41:20;2.22;;;2.03;;
75634;SDS011;64227;48.724;9.104;2023-07-31T03:43:49;2.38;;;1.02;;
75634;SDS011;64227;48.724;9.104;2023-07-31T03:46:20;2.40;;;1.00;;
75634;SDS011;64227;48.724;9.104;2023-07-31T03:48:46;1.98;;;1.10;;
75634;SDS011;64227;48.724;9.104;2023-07-31T03:51:12;2.13;;;1.02;;
75634;SDS011;64227;48.724;9.104;2023-07-31T03:53:37;3.00;;;1.27;;
75634;SDS011;64227;48.724;9.104;2023-07-31T03:56:02;2.10;;;1.13;;
75634;SDS011;64227;48.724;9.104;2023-07-31T03:58:28;1.05;;;0.77;;
75634;SDS011;64227;48.724;9.104;2023-07-31T04:00:53;1.35;;;0.90;;
75634;SDS011;64227;48.724;9.104;2023-07-31T04:03:19;2.60;;;1.05;;
75634;SDS011;64227;48.724;9.104;2023-07-31T04:05:44;1.75;;;0.93;;
75634;SDS011;64227;48.724;9.104;2023-07-31T04:08:09;2.15;;;1.30;;
75634;SDS011;64227;48.724;9.104;2023-07-31T04:10:35;2.60;;;1.10;;
75634;SDS011;64227;48.724;9.104;2023-07-31T04:13:00;2.88;;;1.10;;
75634;SDS011;64227;48.724;9.104;2023-07-31T04:15:25;3.40;;;1.05;;
75634;SDS011;64227;48.724;9.104;2023-07-31T04:17:51;1.88;;;1.13;;
75634;SDS011;64227;48.724;9.104;2023-07-31T04:20:16;4.75;;;1.05;;
75634;SDS011;64227;48.724;9.104;2023-07-31T04:22:42;1.58;;;1.20;;
75634;SDS011;64227;48.724;9.104;2023-07-31T04:25:07;3.47;;;0.80;;
75634;SDS011;64227;48.724;9.104;2023-07-31T04:27:33;1.85;;;1.00;;
75634;SDS011;64227;48.724;9.104;2023-07-31T04:29:58;2.45;;;0.98;;
75634;SDS011;64227;48.724;9.104;2023-07-31T04:32:23;2.22;;;0.90;;
75634;SDS011;64227;48.724;9.104;2023-07-31T04:34:49;1.38;;;0.90;;
75634;SDS011;64227;48.724;9.104;2023-07-31T04:37:14;1.88;;;1.10;;
75634;SDS011;64227;48.724;9.104;2023-07-31T04:39:50;1.48;;;1.00;;
75634;SDS011;64227;48.724;9.104;2023-07-31T04:42:18;1.92;;;1.17;;
75634;SDS011;64227;48.724;9.104;2023-07-31T04:44:46;2.85;;;1.10;;
75634;SDS011;64227;48.724;9.104;2023-07-31T04:47:11;2.72;;;1.05;;
75634;SDS011;64227;48.724;9.104;2023-07-31T04:49:37;2.22;;;0.90;;
75634;SDS011;64227;48.724;9.104;2023-07-31T04:52:02;1.42;;;0.90;;
75634;SDS011;64227;48.724;9.104;2023-07-31T04:54:28;3.20;;;1.00;;
75634;SDS011;64227;48.724;9.104;2023-07-31T04:56:53;1.55;;;1.00;;
75634;SDS011;64227;48.724;9.104;2023-07-31T04:59:18;1.27;;;0.98;;
75634;SDS011;64227;48.724;9.104;2023-07-31T05:01:44;2.10;;;0.82;;
75634;SDS011;64227;48.724;9.104;2023-07-31T05:04:12;3.08;;;0.90;;
75634;SDS011;64227;48.724;9.104;2023-07-31T05:06:37;1.42;;;0.85;;
75634;SDS011;64227;48.724;9.104;2023-07-31T05:09:03;2.78;;;1.35;;
75634;SDS011;64227;48.724;9.104;2023-07-31T05:11:28;3.70;;;1.08;;
75634;SDS011;64227;48.724;9.104;2023-07-31T05:13:53;2.47;;;1.00;;
75634;SDS011;64227;48.724;9.104;2023-07-31T05:16:19;1.52;;;1.00;;
75634;SDS011;64227;48.724;9.104;2023-07-31T05:18:44;1.70;;;1.20;;
75634;SDS011;64227;48.724;9.104;2023-07-31T05:21:09;1.95;;;0.90;;
75634;SDS011;64227;48.724;9.104;2023-07-31T05:23:35;4.68;;;1.35;;
75634;SDS011;64227;48.724;9.104;2023-07-31T05:26:04;1.95;;;0.95;;
75634;SDS011;64227;48.724;9.104;2023-07-31T05:28:34;1.58;;;0.90;;
75634;SDS011;64227;48.724;9.104;2023-07-31T05:31:00;1.88;;;0.80;;
75634;SDS011;64227;48.724;9.104;2023-07-31T05:33:25;2.67;;;0.82;;
75634;SDS011;64227;48.724;9.104;2023-07-31T05:35:51;2.97;;;1.10;;
75634;SDS011;64227;48.724;9.104;2023-07-31T05:38:16;1.45;;;1.10;;
75634;SDS011;64227;48.724;9.104;2023-07-31T05:40:42;2.83;;;1.02;;
75634;SDS011;64227;48.724;9.104;2023-07-31T05:43:07;1.20;;;1.10;;
75634;SDS011;64227;48.724;9.104;2023-07-31T05:45:33;2.42;;;1.00;;
75634;SDS011;64227;48.724;9.104;2023-07-31T05:47:58;5.50;;;1.20;;
75634;SDS011;64227;48.724;9.104;2023-07-31T05:50:23;3.28;;;1.20;;
75634;SDS011;64227;48.724;9.104;2023-07-31T05:52:49;3.70;;;1.10;;
75634;SDS011;64227;48.724;9.104;2023-07-31T05:55:14;1.77;;;0.90;;
75634;SDS011;64227;48.724;9.104;2023-07-31T05:57:40;2.90;;;0.80;;
75634;SDS011;64227;48.724;9.104;2023-07-31T06:00:05;2.13;;;1.10;;
75634;SDS011;64227;48.724;9.104;2023-07-31T06:02:31;2.33;;;1.05;;
75634;SDS011;64227;48.724;9.104;2023-07-31T06:05:01;2.30;;;0.93;;
75634;SDS011;64227;48.724;9.104;2023-07-31T06:07:26;2.38;;;1.13;;
75634;SDS011;64227;48.724;9.104;2023-07-31T06:09:52;6.00;;;1.10;;
75634;SDS011;64227;48.724;9.104;2023-07-31T06:12:19;3.10;;;1.02;;
75634;SDS011;64227;48.724;9.104;2023-07-31T06:14:44;2.67;;;1.00;;
75634;SDS011;64227;48.724;9.104;2023-07-31T06:17:10;3.45;;;1.10;;
75634;SDS011;64227;48.724;9.104;2023-07-31T06:19:35;3.70;;;1.00;;
75634;SDS011;64227;48.724;9.104;2023-07-31T06:22:01;3.08;;;0.90;;
75634;SDS011;64227;48.724;9.104;2023-07-31T06:24:26;2.50;;;0.93;;
75634;SDS011;64227;48.724;9.104;2023-07-31T06:26:51;1.27;;;0.85;;
75634;SDS011;64227;48.724;9.104;2023-07-31T06:29:17;1.15;;;1.00;;
75634;SDS011;64227;48.724;9.104;2023-07-31T06:31:42;1.73;;;0.98;;
75634;SDS011;64227;48.724;9.104;2023-07-31T06:34:07;1.13;;;0.82;;
75634;SDS011;64227;48.724;9.104;2023-07-31T06:36:32;2.22;;;0.93;;
75634;SDS011;64227;48.724;9.104;2023-07-31T06:38:58;3.53;;;1.00;;
75634;SDS011;64227;48.724;9.104;2023-07-31T06:41:23;3.00;;;1.13;;
75634;SDS011;64227;48.724;9.104;2023-07-31T06:43:48;1.38;;;1.02;;
75634;SDS011;64227;48.724;9.104;2023-07-31T06:46:14;2.38;;;1.30;;
75634;SDS011;64227;48.724;9.104;2023-07-31T06:48:39;5.10;;;1.05;;
75634;SDS011;64227;48.724;9.104;2023-07-31T06:51:04;4.22;;;1.15;;
75634;SDS011;64227;48.724;9.104;2023-07-31T06:53:30;1.15;;;0.82;;
75634;SDS011;64227;48.724;9.104;2023-07-31T06:55:55;3.03;;;1.20;;
75634;SDS011;64227;48.724;9.104;2023-07-31T06:58:20;3.50;;;1.10;;
75634;SDS011;64227;48.724;9.104;2023-07-31T07:00:45;3.28;;;1.58;;
75634;SDS011;64227;48.724;9.104;2023-07-31T07:03:11;1.80;;;0.70;;
75634;SDS011;64227;48.724;9.104;2023-07-31T07:05:36;3.60;;;1.30;;
75634;SDS011;64227;48.724;9.104;2023-07-31T07:08:02;3.45;;;1.10;;
75634;SDS011;64227;48.724;9.104;2023-07-31T07:10:27;2.53;;;1.17;;
75634;SDS011;64227;48.724;9.104;2023-07-31T07:12:52;3.38;;;1.00;;
75634;SDS011;64227;48.724;9.104;2023-07-31T07:15:18;3.38;;;1.35;;
75634;SDS011;64227;48.724;9.104;2023-07-31T07:17:43;2.85;;;1.20;;
75634;SDS011;64227;48.724;9.104;2023-07-31T07:20:08;2.70;;;0.90;;
75634;SDS011;64227;48.724;9.104;2023-07-31T07:22:34;2.58;;;1.08;;
75634;SDS011;64227;48.724;9.104;2023-07-31T07:24:59;2.42;;;1.20;;
75634;SDS011;64227;48.724;9.104;2023-07-31T07:27:24;3.97;;;1.27;;
75634;SDS011;64227;48.724;9.104;2023-07-31T07:29:50;5.50;;;1.42;;
75634;SDS011;64227;48.724;9.104;2023-07-31T07:32:17;1.20;;;0.73;;
75634;SDS011;64227;48.724;9.104;2023-07-31T07:34:43;1.42;;;1.10;;
75634;SDS011;64227;48.724;9.104;2023-07-31T07:37:08;2.25;;;0.88;;
75634;SDS011;64227;48.724;9.104;2023-07-31T07:39:34;2.28;;;1.10;;
75634;SDS011;64227;48.724;9.104;2023-07-31T07:41:59;3.28;;;1.27;;
75634;SDS011;64227;48.724;9.104;2023-07-31T07:44:24;2.60;;;1.08;;
75634;SDS011;64227;48.724;9.104;2023-07-31T07:46:49;4.35;;;1.20;;
75634;SDS011;64227;48.724;9.104;2023-07-31T07:49:15;2.90;;;1.50;;
75634;SDS011;64227;48.724;9.104;2023-07-31T07:51:40;1.58;;;1.15;;
75634;SDS011;64227;48.724;9.104;2023-07-31T07:54:05;3.22;;;1.15;;
75634;SDS011;64227;48.724;9.104;2023-07-31T07:56:31;2.50;;;1.17;;
75634;SDS011;64227;48.724;9.104;2023-07-31T07:58:57;2.75;;;1.17;;
75634;SDS011;64227;48.724;9.104;2023-07-31T08:01:23;4.50;;;1.17;;
75634;SDS011;64227;48.724;9.104;2023-07-31T08:03:48;6.90;;;1.50;;
75634;SDS011;64227;48.724;9.104;2023-07-31T08:06:14;2.63;;;1.20;;
75634;SDS011;64227;48.724;9.104;2023-07-31T08:08:40;4.25;;;1.50;;
75634;SDS011;64227;48.724;9.104;2023-07-31T08:11:05;1.95;;;1.13;;
75634;SDS011;64227;48.724;9.104;2023-07-31T08:13:31;2.70;;;1.17;;
75634;SDS011;64227;48.724;9.104;2023-07-31T08:15:56;2.35;;;1.20;;
75634;SDS011;64227;48.724;9.104;2023-07-31T08:18:21;2.95;;;1.23;;
75634;SDS011;64227;48.724;9.104;2023-07-31T08:20:47;2.47;;;1.35;;
75634;SDS011;64227;48.724;9.104;2023-07-31T08:23:12;4.05;;;1.58;;
75634;SDS011;64227;48.724;9.104;2023-07-31T08:25:38;4.95;;;1.50;;
75634;SDS011;64227;48.724;9.104;2023-07-31T08:28:04;4.38;;;1.45;;
75634;SDS011;64227;48.724;9.104;2023-07-31T08:30:30;2.13;;;1.40;;
75634;SDS011;64227;48.724;9.104;2023-07-31T08:32:55;3.63;;;1.10;;
75634;SDS011;64227;48.724;9.104;2023-07-31T08:35:20;4.25;;;1.40;;
75634;SDS011;64227;48.724;9.104;2023-07-31T08:37:46;2.28;;;1.05;;
75634;SDS011;64227;48.724;9.104;2023-07-31T08:40:11;2.42;;;1.15;;
75634;SDS011;64227;48.724;9.104;2023-07-31T08:42:46;4.40;;;1.33;;
75634;SDS011;64227;48.724;9.104;2023-07-31T08:45:14;2.47;;;1.65;;
75634;SDS011;64227;48.724;9.104;2023-07-31T08:47:41;3.10;;;1.40;;
75634;SDS011;64227;48.724;9.104;2023-07-31T08:50:09;2.65;;;1.38;;
75634;SDS011;64227;48.724;9.104;2023-07-31T08:52:36;3.45;;;1.67;;
75634;SDS011;64227;48.724;9.104;2023-07-31T08:55:02;4.70;;;1.35;;
75634;SDS011;64227;48.724;9.104;2023-07-31T08:57:27;3.72;;;1.10;;
75634;SDS011;64227;48.724;9.104;2023-07-31T08:59:53;3.40;;;1.40;;
75634;SDS011;64227;48.724;9.104;2023-07-31T09:02:19;2.72;;;1.63;;
75634;SDS011;64227;48.724;9.104;2023-07-31T09:04:44;3.90;;;1.70;;
75634;SDS011;64227;48.724;9.104;2023-07-31T09:07:09;3.28;;;1.45;;
75634;SDS011;64227;48.724;9.104;2023-07-31T09:09:38;4.43;;;1.67;;
75634;SDS011;64227;48.724;9.104;2023-07-31T09:12:03;4.25;;;1.30;;
75634;SDS011;64227;48.724;9.104;2023-07-31T09:14:29;2.83;;;1.40;;
75634;SDS011;64227;48.724;9.104;2023-07-31T09:16:55;2.72;;;1.15;;
75634;SDS011;64227;48.724;9.104;2023-07-31T09:19:25;2.10;;;0.90;;
75634;SDS011;64227;48.724;9.104;2023-07-31T09:21:52;3.63;;;1.20;;
75634;SDS011;64227;48.724;9.104;2023-07-31T09:24:30;4.68;;;1.48;;
75634;SDS011;64227;48.724;9.104;2023-07-31T09:26:57;5.00;;;1.40;;
75634;SDS011;64227;48.724;9.104;2023-07-31T09:29:24;2.85;;;1.20;;
75634;SDS011;64227;48.724;9.104;2023-07-31T09:31:51;2.55;;;1.33;;
75634;SDS011;64227;48.724;9.104;2023-07-31T09:34:16;2.33;;;1.65;;
75634;SDS011;64227;48.724;9.104;2023-07-31T09:36:46;3.05;;;1.17;;
75634;SDS011;64227;48.724;9.104;2023-07-31T09:39:13;1.52;;;1.10;;
75634;SDS011;64227;48.724;9.104;2023-07-31T09:41:39;3.03;;;1.20;;
75634;SDS011;64227;48.724;9.104;2023-07-31T09:44:07;2.45;;;1.20;;
75634;SDS011;64227;48.724;9.104;2023-07-31T09:46:34;2.72;;;1.30;;
75634;SDS011;64227;48.724;9.104;2023-07-31T09:49:07;5.28;;;1.50;;
75634;SDS011;64227;48.724;9.104;2023-07-31T09:51:37;2.63;;;1.50;;
75634;SDS011;64227;48.724;9.104;2023-07-31T09:54:10;5.53;;;1.33;;
75634;SDS011;64227;48.724;9.104;2023-07-31T09:56:47;3.00;;;1.55;;
75634;SDS011;64227;48.724;9.104;2023-07-31T09:59:14;3.15;;;1.52;;
75634;SDS011;64227;48.724;9.104;2023-07-31T10:01:41;3.88;;;1.70;;
75634;SDS011;64227;48.724;9.104;2023-07-31T10:04:10;5.57;;;2.05;;
75634;SDS011;64227;48.724;9.104;2023-07-31T10:06:36;5.38;;;1.60;;
75634;SDS011;64227;48.724;9.104;2023-07-31T10:09:03;3.20;;;1.50;;
75634;SDS011;64227;48.724;9.104;2023-07-31T10:11:31;2.83;;;1.50;;
75634;SDS011;64227;48.724;9.104;2023-07-31T10:14:01;2.88;;;1.35;;
75634;SDS011;64227;48.724;9.104;2023-07-31T10:16:26;2.72;;;1.80;;
75634;SDS011;64227;48.724;9.104;2023-07-31T10:18:52;3.97;;;1.50;;
75634;SDS011;64227;48.724;9.104;2023-07-31T10:21:18;5.07;;;1.83;;
75634;SDS011;64227;48.724;9.104;2023-07-31T10:23:44;4.43;;;1.50;;
75634;SDS011;64227;48.724;9.104;2023-07-31T10:26:09;2.53;;;1.10;;
75634;SDS011;64227;48.724;9.104;2023-07-31T10:28:35;2.55;;;1.70;;
75634;SDS011;64227;48.724;9.104;2023-07-31T10:31:01;3.13;;;1.48;;
75634;SDS011;64227;48.724;9.104;2023-07-31T10:33:28;3.10;;;1.48;;
75634;SDS011;64227;48.724;9.104;2023-07-31T10:36:12;5.43;;;1.75;;
75634;SDS011;64227;48.724;9.104;2023-07-31T10:38:49;3.67;;;1.75;;
75634;SDS011;64227;48.724;9.104;2023-07-31T10:41:16;2.35;;;1.35;;
75634;SDS011;64227;48.724;9.104;2023-07-31T10:43:41;2.85;;;1.20;;
75634;SDS011;64227;48.724;9.104;2023-07-31T10:46:07;3.55;;;1.70;;
75634;SDS011;64227;48.724;9.104;2023-07-31T10:48:33;3.60;;;1.45;;
75634;SDS011;64227;48.724;9.104;2023-07-31T10:50:59;2.58;;;1.52;;
75634;SDS011;64227;48.724;9.104;2023-07-31T10:53:34;3.60;;;1.60;;
75634;SDS011;64227;48.724;9.104;2023-07-31T10:58:25;3.72;;;1.58;;
75634;SDS011;64227;48.724;9.104;2023-07-31T11:00:54;2.83;;;1.55;;
75634;SDS011;64227;48.724;9.104;2023-07-31T11:03:24;3.83;;;1.65;;
75634;SDS011;64227;48.724;9.104;2023-07-31T11:05:59;3.50;;;1.42;;
75634;SDS011;64227;48.724;9.104;2023-07-31T11:08:35;3.92;;;1.67;;
75634;SDS011;64227;48.724;9.104;2023-07-31T11:13:26;3.20;;;1.50;;
75634;SDS011;64227;48.724;9.104;2023-07-31T11:15:51;2.17;;;1.50;;
75634;SDS011;64227;48.724;9.104;2023-07-31T11:18:17;3.95;;;1.70;;
75634;SDS011;64227;48.724;9.104;2023-07-31T11:20:43;3.92;;;1.40;;
75634;SDS011;64227;48.724;9.104;2023-07-31T11:23:09;3.95;;;2.00;;
75634;SDS011;64227;48.724;9.104;2023-07-31T11:25:35;4.72;;;1.52;;
75634;SDS011;64227;48.724;9.104;2023-07-31T11:28:05;5.88;;;1.67;;
75634;SDS011;64227;48.724;9.104;2023-07-31T11:30:31;2.75;;;1.42;;
75634;SDS011;64227;48.724;9.104;2023-07-31T11:32:57;1.88;;;1.27;;
75634;SDS011;64227;48.724;9.104;2023-07-31T11:35:22;4.20;;;1.77;;
75634;SDS011;64227;48.724;9.104;2023-07-31T11:37:47;3.72;;;1.52;;
75634;SDS011;64227;48.724;9.104;2023-07-31T11:40:13;3.60;;;1.55;;
75634;SDS011;64227;48.724;9.104;2023-07-31T11:42:39;4.07;;;1.73;;
75634;SDS011;64227;48.724;9.104;2023-07-31T11:45:05;3.53;;;1.73;;
75634;SDS011;64227;48.724;9.104;2023-07-31T11:47:35;4.75;;;1.65;;
75634;SDS011;64227;48.724;9.104;2023-07-31T11:50:02;3.95;;;1.80;;
75634;SDS011;64227;48.724;9.104;2023-07-31T11:52:33;3.05;;;1.50;;
75634;SDS011;64227;48.724;9.104;2023-07-31T11:55:00;4.05;;;1.67;;
75634;SDS011;64227;48.724;9.104;2023-07-31T11:57:26;5.25;;;2.03;;
75634;SDS011;64227;48.724;9.104;2023-07-31T11:59:52;5.68;;;2.00;;
75634;SDS011;64227;48.724;9.104;2023-07-31T12:02:17;3.13;;;1.40;;
75634;SDS011;64227;48.724;9.104;2023-07-31T12:04:43;5.05;;;1.65;;
75634;SDS011;64227;48.724;9.104;2023-07-31T12:07:09;2.47;;;1.63;;
75634;SDS011;64227;48.724;9.104;2023-07-31T12:09:34;3.40;;;1.70;;
75634;SDS011;64227;48.724;9.104;2023-07-31T12:11:59;2.20;;;1.20;;
75634;SDS011;64227;48.724;9.104;2023-07-31T12:14:26;3.97;;;1.50;;
75634;SDS011;64227;48.724;9.104;2023-07-31T12:17:01;2.47;;;1.55;;
75634;SDS011;64227;48.724;9.104;2023-07-31T12:19:29;4.97;;;1.95;;
75634;SDS011;64227;48.724;9.104;2023-07-31T12:21:55;3.47;;;1.70;;
75634;SDS011;64227;48.724;9.104;2023-07-31T12:24:21;5.28;;;2.00;;
75634;SDS011;64227;48.724;9.104;2023-07-31T12:26:47;3.25;;;1.75;;
75634;SDS011;64227;48.724;9.104;2023-07-31T12:29:13;3.97;;;1.52;;
75634;SDS011;64227;48.724;9.104;2023-07-31T12:31:40;2.58;;;1.30;;
75634;SDS011;64227;48.724;9.104;2023-07-31T12:34:14;2.83;;;1.50;;
75634;SDS011;64227;48.724;9.104;2023-07-31T12:36:40;2.63;;;1.67;;
75634;SDS011;64227;48.724;9.104;2023-07-31T12:39:07;2.97;;;1.40;;
75634;SDS011;64227;48.724;9.104;2023-07-31T12:41:32;2.78;;;1.73;;
75634;SDS011;64227;48.724;9.104;2023-07-31T12:43:58;3.25;;;1.40;;
75634;SDS011;64227;48.724;9.104;2023-07-31T12:46:23;3.90;;;1.60;;
75634;SDS011;64227;48.724;9.104;2023-07-31T12:48:48;3.08;;;1.40;;
75634;SDS011;64227;48.724;9.104;2023-07-31T12:51:14;3.10;;;1.80;;
75634;SDS011;64227;48.724;9.104;2023-07-31T12:53:39;2.80;;;1.60;;
75634;SDS011;64227;48.724;9.104;2023-07-31T12:56:04;3.97;;;1.80;;
75634;SDS011;64227;48.724;9.104;2023-07-31T12:58:30;2.40;;;1.63;;
75634;SDS011;64227;48.724;9.104;2023-07-31T13:00:55;4.50;;;1.80;;
75634;SDS011;64227;48.724;9.104;2023-07-31T13:03:21;3.53;;;1.80;;
75634;SDS011;64227;48.724;9.104;2023-07-31T13:05:46;1.88;;;1.70;;
75634;SDS011;64227;48.724;9.104;2023-07-31T13:08:11;2.33;;;1.38;;
75634;SDS011;64227;48.724;9.104;2023-07-31T13:10:37;3.92;;;1.75;;
75634;SDS011;64227;48.724;9.104;2023-07-31T13:13:02;3.08;;;1.58;;
75634;SDS011;64227;48.724;9.104;2023-07-31T13:15:27;3.67;;;2.50;;
75634;SDS011;64227;48.724;9.104;2023-07-31T13:17:53;4.28;;;1.83;;
75634;SDS011;64227;48.724;9.104;2023-07-31T13:20:18;4.18;;;1.50;;
75634;SDS011;64227;48.724;9.104;2023-07-31T13:22:43;4.20;;;2.05;;
75634;SDS011;64227;48.724;9.104;2023-07-31T13:25:08;2.75;;;1.48;;
75634;SDS011;64227;48.724;9.104;2023-07-31T13:27:34;3.17;;;1.58;;
75634;SDS011;64227;48.724;9.104;2023-07-31T13:30:00;2.88;;;1.52;;
75634;SDS011;64227;48.724;9.104;2023-07-31T13:32:25;3.78;;;1.95;;
75634;SDS011;64227;48.724;9.104;2023-07-31T13:34:51;2.22;;;1.38;;
75634;SDS011;64227;48.724;9.104;2023-07-31T13:37:16;2.53;;;1.83;;
75634;SDS011;64227;48.724;9.104;2023-07-31T13:39:42;2.13;;;1.65;;
75634;SDS011;64227;48.724;9.104;2023-07-31T13:42:08;2.47;;;1.50;;
75634;SDS011;64227;48.724;9.104;2023-07-31T13:44:34;3.33;;;1.50;;
75634;SDS011;64227;48.724;9.104;2023-07-31T13:47:00;2.90;;;1.73;;
75634;SDS011;64227;48.724;9.104;2023-07-31T13:49:25;3.90;;;1.80;;
75634;SDS011;64227;48.724;9.104;2023-07-31T13:51:51;4.35;;;1.92;;
75634;SDS011;64227;48.724;9.104;2023-07-31T13:54:16;3.75;;;2.00;;
75634;SDS011;64227;48.724;9.104;2023-07-31T13:56:42;4.13;;;2.20;;
75634;SDS011;64227;48.724;9.104;2023-07-31T13:59:08;3.42;;;1.60;;
75634;SDS011;64227;48.724;9.104;2023-07-31T14:01:33;5.15;;;1.77;;
75634;SDS011;64227;48.724;9.104;2023-07-31T14:03:58;2.72;;;1.48;;
75634;SDS011;64227;48.724;9.104;2023-07-31T14:06:24;5.45;;;1.55;;
75634;SDS011;64227;48.724;9.104;2023-07-31T14:08:49;4.45;;;1.48;;
75634;SDS011;64227;48.724;9.104;2023-07-31T14:11:14;4.93;;;1.80;;
75634;SDS011;64227;48.724;9.104;2023-07-31T14:13:39;3.13;;;1.80;;
75634;SDS011;64227;48.724;9.104;2023-07-31T14:16:05;4.85;;;1.73;;
75634;SDS011;64227;48.724;9.104;2023-07-31T14:18:31;3.05;;;1.70;;
75634;SDS011;64227;48.724;9.104;2023-07-31T14:20:56;3.28;;;1.63;;
75634;SDS011;64227;48.724;9.104;2023-07-31T14:23:22;4.97;;;1.80;;
75634;SDS011;64227;48.724;9.104;2023-07-31T14:25:47;3.00;;;1.65;;
75634;SDS011;64227;48.724;9.104;2023-07-31T14:28:12;4.00;;;1.70;;
75634;SDS011;64227;48.724;9.104;2023-07-31T14:30:38;3.08;;;1.83;;
75634;SDS011;64227;48.724;9.104;2023-07-31T14:33:03;3.00;;;1.75;;
75634;SDS011;64227;48.724;9.104;2023-07-31T14:35:28;2.42;;;1.60;;
75634;SDS011;64227;48.724;9.104;2023-07-31T14:37:54;2.63;;;1.40;;
75634;SDS011;64227;48.724;9.104;2023-07-31T14:40:19;3.28;;;1.65;;
75634;SDS011;64227;48.724;9.104;2023-07-31T14:42:45;3.67;;;2.03;;
75634;SDS011;64227;48.724;9.104;2023-07-31T14:45:10;3.50;;;1.77;;
75634;SDS011;64227;48.724;9.104;2023-07-31T14:47:36;2.60;;;1.50;;
75634;SDS011;64227;48.724;9.104;2023-07-31T14:50:01;8.32;;;1.75;;